sensor_id;sensor_type;location;lat;lon;timestamp;temperature;humidity
18974;DHT22;9621;48.690;9.466;2023-12-14T00:00:53;4.10;99.90
18974;DHT22;9621;48.690;9.466;2023-12-14T00:03:20;4.10;99.90
18974;DHT22;9621;48.690;9.466;2023-12-14T00:05:47;4.10;99.90
18974;DHT22;9621;48.690;9.466;2023-12-14T00:08:15;4.20;99.90
18974;DHT22;9621;48.690;9.466;2023-12-14T00:10:42;4.10;99.90
18974;DHT22;9621;48.690;9.466;2023-12-14T00:13:09;4.10;99.90
18974;DHT22;9621;48.690;9.466;2023-12-14T00:15:35;4.10;99.90
18974;DHT22;9621;48.690;9.466;2023-12-14T00:18:02;4.10;99.90
18974;DHT22;9621;48.690;9.466;2023-12-14T00:20:29;4.10;99.90
18974;DHT22;9621;48.690;9.466;2023-12-14T00:22:56;4.10;99.90
18974;DHT22;9621;48.690;9.466;2023-12-14T00:25:24;4.10;99.90
18974;DHT22;9621;48.690;9.466;2023-12-14T00:27:51;4.10;99.90
18974;DHT22;9621;48.690;9.466;2023-12-14T00:30:18;4.00;99.90
18974;DHT22;9621;48.690;9.466;2023-12-14T00:32:45;4.10;99.90
18974;DHT22;9621;48.690;9.466;2023-12-14T00:35:12;4.10;99.90
18974;DHT22;9621;48.690;9.466;2023-12-14T00:37:39;4.10;99.90
18974;DHT22;9621;48.690;9.466;2023-12-14T00:40:06;4.10;99.90
18974;DHT22;9621;48.690;9.466;2023-12-14T00:42:35;4.10;99.90
18974;DHT22;9621;48.690;9.466;2023-12-14T00:45:02;4.10;99.90
18974;DHT22;9621;48.690;9.466;2023-12-14T00:47:29;4.00;99.90
18974;DHT22;9621;48.690;9.466;2023-12-14T00:49:56;4.00;99.90
18974;DHT22;9621;48.690;9.466;2023-12-14T00:52:23;4.00;99.90
18974;DHT22;9621;48.690;9.466;2023-12-14T00:54:49;4.00;99.90
18974;DHT22;9621;48.690;9.466;2023-12-14T00:57:15;4.00;99.90
18974;DHT22;9621;48.690;9.466;2023-12-14T00:59:44;4.00;99.90
18974;DHT22;9621;48.690;9.466;2023-12-14T01:02:11;4.00;99.90
18974;DHT22;9621;48.690;9.466;2023-12-14T01:04:38;4.00;99.90
18974;DHT22;9621;48.690;9.466;2023-12-14T01:07:04;4.00;99.90
18974;DHT22;9621;48.690;9.466;2023-12-14T01:09:31;4.00;99.90
18974;DHT22;9621;48.690;9.466;2023-12-14T01:11:58;4.00;99.90
18974;DHT22;9621;48.690;9.466;2023-12-14T01:14:25;4.00;99.90
18974;DHT22;9621;48.690;9.466;2023-12-14T01:16:53;4.10;99.90
18974;DHT22;9621;48.690;9.466;2023-12-14T01:19:20;4.10;99.90
18974;DHT22;9621;48.690;9.466;2023-12-14T01:21:47;4.10;99.90
18974;DHT22;9621;48.690;9.466;2023-12-14T01:24:14;4.10;99.90
18974;DHT22;9621;48.690;9.466;2023-12-14T01:26:41;4.10;99.90
18974;DHT22;9621;48.690;9.466;2023-12-14T01:29:08;4.10;99.90
18974;DHT22;9621;48.690;9.466;2023-12-14T01:31:36;4.20;99.90
18974;DHT22;9621;48.690;9.466;2023-12-14T01:34:04;4.20;99.90
18974;DHT22;9621;48.690;9.466;2023-12-14T01:36:31;4.20;99.90
18974;DHT22;9621;48.690;9.466;2023-12-14T01:38:58;4.20;99.90
18974;DHT22;9621;48.690;9.466;2023-12-14T01:41:25;4.20;99.90
18974;DHT22;9621;48.690;9.466;2023-12-14T01:43:52;4.20;99.90
18974;DHT22;9621;48.690;9.466;2023-12-14T01:46:19;4.30;99.90
18974;DHT22;9621;48.690;9.466;2023-12-14T01:48:46;4.20;99.90
18974;DHT22;9621;48.690;9.466;2023-12-14T01:51:14;4.20;99.90
18974;DHT22;9621;48.690;9.466;2023-12-14T01:53:41;4.20;99.90
18974;DHT22;9621;48.690;9.466;2023-12-14T01:56:08;4.20;99.90
18974;DHT22;9621;48.690;9.466;2023-12-14T01:58:35;4.20;99.90
18974;DHT22;9621;48.690;9.466;2023-12-14T02:01:08;4.30;99.90
18974;DHT22;9621;48.690;9.466;2023-12-14T02:03:36;4.20;99.90
18974;DHT22;9621;48.690;9.466;2023-12-14T02:06:10;4.30;99.90
18974;DHT22;9621;48.690;9.466;2023-12-14T02:08:38;4.30;99.90
18974;DHT22;9621;48.690;9.466;2023-12-14T02:11:05;4.30;99.90
18974;DHT22;9621;48.690;9.466;2023-12-14T02:13:32;4.30;99.90
18974;DHT22;9621;48.690;9.466;2023-12-14T02:15:59;4.30;99.90
18974;DHT22;9621;48.690;9.466;2023-12-14T02:18:26;4.20;99.90
18974;DHT22;9621;48.690;9.466;2023-12-14T02:20:52;4.30;99.90
18974;DHT22;9621;48.690;9.466;2023-12-14T02:23:21;4.30;99.90
18974;DHT22;9621;48.690;9.466;2023-12-14T02:25:47;4.30;99.90
18974;DHT22;9621;48.690;9.466;2023-12-14T02:28:15;4.20;99.90
18974;DHT22;9621;48.690;9.466;2023-12-14T02:30:41;4.20;99.90
18974;DHT22;9621;48.690;9.466;2023-12-14T02:33:09;4.20;99.90
18974;DHT22;9621;48.690;9.466;2023-12-14T02:35:36;4.30;99.90
18974;DHT22;9621;48.690;9.466;2023-12-14T02:38:03;4.20;99.90
18974;DHT22;9621;48.690;9.466;2023-12-14T02:40:31;4.20;99.90
18974;DHT22;9621;48.690;9.466;2023-12-14T02:42:58;4.20;99.90
18974;DHT22;9621;48.690;9.466;2023-12-14T02:45:25;4.20;99.90
18974;DHT22;9621;48.690;9.466;2023-12-14T02:47:52;4.20;99.90
18974;DHT22;9621;48.690;9.466;2023-12-14T02:50:19;4.20;99.90
18974;DHT22;9621;48.690;9.466;2023-12-14T02:52:46;4.20;99.90
18974;DHT22;9621;48.690;9.466;2023-12-14T02:55:13;4.20;99.90
18974;DHT22;9621;48.690;9.466;2023-12-14T02:57:42;4.20;99.90
18974;DHT22;9621;48.690;9.466;2023-12-14T03:00:10;4.20;99.90
18974;DHT22;9621;48.690;9.466;2023-12-14T03:02:37;4.10;99.90
18974;DHT22;9621;48.690;9.466;2023-12-14T03:05:04;4.20;99.90
18974;DHT22;9621;48.690;9.466;2023-12-14T03:07:31;4.20;99.90
18974;DHT22;9621;48.690;9.466;2023-12-14T03:09:58;4.20;99.90
18974;DHT22;9621;48.690;9.466;2023-12-14T03:12:25;4.20;99.90
18974;DHT22;9621;48.690;9.466;2023-12-14T03:14:54;4.20;99.90
18974;DHT22;9621;48.690;9.466;2023-12-14T03:17:21;4.20;99.90
18974;DHT22;9621;48.690;9.466;2023-12-14T03:19:48;4.20;99.90
18974;DHT22;9621;48.690;9.466;2023-12-14T03:22:14;4.30;99.90
18974;DHT22;9621;48.690;9.466;2023-12-14T03:24:42;4.30;99.90
18974;DHT22;9621;48.690;9.466;2023-12-14T03:27:09;4.30;99.90
18974;DHT22;9621;48.690;9.466;2023-12-14T03:29:35;4.30;99.90
18974;DHT22;9621;48.690;9.466;2023-12-14T03:32:04;4.30;99.90
18974;DHT22;9621;48.690;9.466;2023-12-14T03:34:31;4.30;99.90
18974;DHT22;9621;48.690;9.466;2023-12-14T03:36:58;4.40;99.90
18974;DHT22;9621;48.690;9.466;2023-12-14T03:39:25;4.40;99.90
18974;DHT22;9621;48.690;9.466;2023-12-14T03:41:52;4.30;99.90
18974;DHT22;9621;48.690;9.466;2023-12-14T03:44:19;4.40;99.90
18974;DHT22;9621;48.690;9.466;2023-12-14T03:46:46;4.40;99.90
18974;DHT22;9621;48.690;9.466;2023-12-14T03:49:14;4.40;99.90
18974;DHT22;9621;48.690;9.466;2023-12-14T03:51:41;4.40;99.90
18974;DHT22;9621;48.690;9.466;2023-12-14T03:54:08;4.40;99.90
18974;DHT22;9621;48.690;9.466;2023-12-14T03:56:35;4.40;99.90
18974;DHT22;9621;48.690;9.466;2023-12-14T03:59:03;4.40;99.90
18974;DHT22;9621;48.690;9.466;2023-12-14T04:01:30;4.40;99.90
18974;DHT22;9621;48.690;9.466;2023-12-14T04:03:59;4.40;99.90
18974;DHT22;9621;48.690;9.466;2023-12-14T04:06:27;4.40;99.90
18974;DHT22;9621;48.690;9.466;2023-12-14T04:08:54;4.50;99.90
18974;DHT22;9621;48.690;9.466;2023-12-14T04:11:21;4.50;99.90
18974;DHT22;9621;48.690;9.466;2023-12-14T04:13:47;4.50;99.90
18974;DHT22;9621;48.690;9.466;2023-12-14T04:16:16;4.50;99.90
18974;DHT22;9621;48.690;9.466;2023-12-14T04:18:45;4.50;99.90
18974;DHT22;9621;48.690;9.466;2023-12-14T04:21:12;4.50;99.90
18974;DHT22;9621;48.690;9.466;2023-12-14T04:23:40;4.50;99.90
18974;DHT22;9621;48.690;9.466;2023-12-14T04:26:07;4.50;99.90
18974;DHT22;9621;48.690;9.466;2023-12-14T04:28:35;4.50;99.90
18974;DHT22;9621;48.690;9.466;2023-12-14T04:31:02;4.60;99.90
18974;DHT22;9621;48.690;9.466;2023-12-14T04:33:29;4.50;99.90
18974;DHT22;9621;48.690;9.466;2023-12-14T04:35:57;4.50;99.90
18974;DHT22;9621;48.690;9.466;2023-12-14T04:38:24;4.60;99.90
18974;DHT22;9621;48.690;9.466;2023-12-14T04:40:52;4.50;99.90
18974;DHT22;9621;48.690;9.466;2023-12-14T04:43:19;4.60;99.90
18974;DHT22;9621;48.690;9.466;2023-12-14T04:45:46;4.50;99.90
18974;DHT22;9621;48.690;9.466;2023-12-14T04:48:13;4.60;99.90
18974;DHT22;9621;48.690;9.466;2023-12-14T04:50:40;4.50;99.90
18974;DHT22;9621;48.690;9.466;2023-12-14T04:53:07;4.50;99.90
18974;DHT22;9621;48.690;9.466;2023-12-14T04:55:34;4.50;99.90
18974;DHT22;9621;48.690;9.466;2023-12-14T04:58:02;4.50;99.90
18974;DHT22;9621;48.690;9.466;2023-12-14T05:00:29;4.60;99.90
18974;DHT22;9621;48.690;9.466;2023-12-14T05:02:56;4.60;99.90
18974;DHT22;9621;48.690;9.466;2023-12-14T05:05:23;4.60;99.90
18974;DHT22;9621;48.690;9.466;2023-12-14T05:07:49;4.70;99.90
18974;DHT22;9621;48.690;9.466;2023-12-14T05:10:16;4.60;99.90
18974;DHT22;9621;48.690;9.466;2023-12-14T05:12:43;4.60;99.90
18974;DHT22;9621;48.690;9.466;2023-12-14T05:15:12;4.60;99.90
18974;DHT22;9621;48.690;9.466;2023-12-14T05:17:39;4.60;99.90
18974;DHT22;9621;48.690;9.466;2023-12-14T05:20:08;5.10;99.90
18974;DHT22;9621;48.690;9.466;2023-12-14T05:22:35;4.60;99.90
18974;DHT22;9621;48.690;9.466;2023-12-14T05:25:03;4.60;99.90
18974;DHT22;9621;48.690;9.466;2023-12-14T05:27:30;4.60;99.90
18974;DHT22;9621;48.690;9.466;2023-12-14T05:29:56;4.70;99.90
18974;DHT22;9621;48.690;9.466;2023-12-14T05:32:24;4.70;99.90
18974;DHT22;9621;48.690;9.466;2023-12-14T05:34:51;4.70;99.90
18974;DHT22;9621;48.690;9.466;2023-12-14T05:37:18;4.70;99.90
18974;DHT22;9621;48.690;9.466;2023-12-14T05:39:45;4.70;99.90
18974;DHT22;9621;48.690;9.466;2023-12-14T05:42:16;4.70;99.90
18974;DHT22;9621;48.690;9.466;2023-12-14T05:44:42;4.70;99.90
18974;DHT22;9621;48.690;9.466;2023-12-14T05:47:10;4.70;99.90
18974;DHT22;9621;48.690;9.466;2023-12-14T05:49:41;4.60;99.90
18974;DHT22;9621;48.690;9.466;2023-12-14T05:52:08;4.70;99.90
18974;DHT22;9621;48.690;9.466;2023-12-14T05:54:35;4.70;99.90
18974;DHT22;9621;48.690;9.466;2023-12-14T05:57:02;4.70;99.90
18974;DHT22;9621;48.690;9.466;2023-12-14T05:59:30;4.70;99.90
18974;DHT22;9621;48.690;9.466;2023-12-14T06:01:57;4.70;99.90
18974;DHT22;9621;48.690;9.466;2023-12-14T06:04:25;4.70;99.90
18974;DHT22;9621;48.690;9.466;2023-12-14T06:06:53;4.70;99.90
18974;DHT22;9621;48.690;9.466;2023-12-14T06:09:20;4.80;99.90
18974;DHT22;9621;48.690;9.466;2023-12-14T06:11:51;4.70;99.90
18974;DHT22;9621;48.690;9.466;2023-12-14T06:14:18;4.80;99.90
18974;DHT22;9621;48.690;9.466;2023-12-14T06:16:45;4.80;99.90
18974;DHT22;9621;48.690;9.466;2023-12-14T06:19:12;4.80;99.90
18974;DHT22;9621;48.690;9.466;2023-12-14T06:21:39;4.80;99.90
18974;DHT22;9621;48.690;9.466;2023-12-14T06:24:08;4.80;99.90
18974;DHT22;9621;48.690;9.466;2023-12-14T06:26:35;4.80;99.90
18974;DHT22;9621;48.690;9.466;2023-12-14T06:29:01;4.90;99.90
18974;DHT22;9621;48.690;9.466;2023-12-14T06:31:28;4.90;99.90
18974;DHT22;9621;48.690;9.466;2023-12-14T06:33:55;4.80;99.90
18974;DHT22;9621;48.690;9.466;2023-12-14T06:36:23;4.90;99.90
18974;DHT22;9621;48.690;9.466;2023-12-14T06:38:52;4.90;99.90
18974;DHT22;9621;48.690;9.466;2023-12-14T06:41:21;4.90;99.90
18974;DHT22;9621;48.690;9.466;2023-12-14T06:43:48;4.90;99.90
18974;DHT22;9621;48.690;9.466;2023-12-14T06:46:15;5.00;99.90
18974;DHT22;9621;48.690;9.466;2023-12-14T06:48:42;5.00;99.90
18974;DHT22;9621;48.690;9.466;2023-12-14T06:51:09;5.00;99.90
18974;DHT22;9621;48.690;9.466;2023-12-14T06:53:41;5.00;99.90
18974;DHT22;9621;48.690;9.466;2023-12-14T06:56:09;5.00;99.90
18974;DHT22;9621;48.690;9.466;2023-12-14T06:58:39;5.00;99.90
18974;DHT22;9621;48.690;9.466;2023-12-14T07:01:06;5.00;99.90
18974;DHT22;9621;48.690;9.466;2023-12-14T07:03:41;5.10;99.90
18974;DHT22;9621;48.690;9.466;2023-12-14T07:06:12;5.00;99.90
18974;DHT22;9621;48.690;9.466;2023-12-14T07:08:39;5.00;99.90
18974;DHT22;9621;48.690;9.466;2023-12-14T07:11:07;5.00;99.90
18974;DHT22;9621;48.690;9.466;2023-12-14T07:13:34;5.00;99.90
18974;DHT22;9621;48.690;9.466;2023-12-14T07:16:05;5.00;99.90
18974;DHT22;9621;48.690;9.466;2023-12-14T07:18:33;5.00;99.90
18974;DHT22;9621;48.690;9.466;2023-12-14T07:21:00;5.00;99.90
18974;DHT22;9621;48.690;9.466;2023-12-14T07:23:27;5.10;99.90
18974;DHT22;9621;48.690;9.466;2023-12-14T07:25:54;5.10;99.90
18974;DHT22;9621;48.690;9.466;2023-12-14T07:28:21;5.10;99.90
18974;DHT22;9621;48.690;9.466;2023-12-14T07:30:49;5.10;99.90
18974;DHT22;9621;48.690;9.466;2023-12-14T07:33:17;5.10;99.90
18974;DHT22;9621;48.690;9.466;2023-12-14T07:35:44;5.10;99.90
18974;DHT22;9621;48.690;9.466;2023-12-14T07:38:11;5.10;99.90
18974;DHT22;9621;48.690;9.466;2023-12-14T07:40:38;5.20;99.90
18974;DHT22;9621;48.690;9.466;2023-12-14T07:43:06;5.20;99.90
18974;DHT22;9621;48.690;9.466;2023-12-14T07:45:34;5.20;99.90
18974;DHT22;9621;48.690;9.466;2023-12-14T07:48:01;5.20;99.90
18974;DHT22;9621;48.690;9.466;2023-12-14T07:50:30;5.20;99.90
18974;DHT22;9621;48.690;9.466;2023-12-14T07:52:57;5.30;99.90
18974;DHT22;9621;48.690;9.466;2023-12-14T07:55:24;5.20;99.90
18974;DHT22;9621;48.690;9.466;2023-12-14T07:57:51;5.30;99.90
18974;DHT22;9621;48.690;9.466;2023-12-14T08:00:18;5.30;99.90
18974;DHT22;9621;48.690;9.466;2023-12-14T08:02:45;5.30;99.90
18974;DHT22;9621;48.690;9.466;2023-12-14T08:05:12;5.30;99.90
18974;DHT22;9621;48.690;9.466;2023-12-14T08:07:40;5.30;99.90
18974;DHT22;9621;48.690;9.466;2023-12-14T08:10:08;5.30;99.90
18974;DHT22;9621;48.690;9.466;2023-12-14T08:12:39;5.40;99.90
18974;DHT22;9621;48.690;9.466;2023-12-14T08:15:08;5.50;99.90
18974;DHT22;9621;48.690;9.466;2023-12-14T08:17:35;5.40;99.90
18974;DHT22;9621;48.690;9.466;2023-12-14T08:20:02;5.50;99.90
18974;DHT22;9621;48.690;9.466;2023-12-14T08:22:34;5.50;99.90
18974;DHT22;9621;48.690;9.466;2023-12-14T08:25:02;5.60;99.90
18974;DHT22;9621;48.690;9.466;2023-12-14T08:27:30;5.60;99.90
18974;DHT22;9621;48.690;9.466;2023-12-14T08:29:56;5.60;99.90
18974;DHT22;9621;48.690;9.466;2023-12-14T08:32:23;5.70;99.90
18974;DHT22;9621;48.690;9.466;2023-12-14T08:34:50;5.70;99.90
18974;DHT22;9621;48.690;9.466;2023-12-14T08:37:18;5.70;99.90
18974;DHT22;9621;48.690;9.466;2023-12-14T08:39:45;5.80;99.90
18974;DHT22;9621;48.690;9.466;2023-12-14T08:42:13;5.80;99.90
18974;DHT22;9621;48.690;9.466;2023-12-14T08:44:40;5.90;99.90
18974;DHT22;9621;48.690;9.466;2023-12-14T08:47:07;5.90;99.90
18974;DHT22;9621;48.690;9.466;2023-12-14T08:49:35;5.90;99.90
18974;DHT22;9621;48.690;9.466;2023-12-14T08:52:02;6.00;99.90
18974;DHT22;9621;48.690;9.466;2023-12-14T08:54:30;6.00;99.90
18974;DHT22;9621;48.690;9.466;2023-12-14T08:56:57;6.10;99.90
18974;DHT22;9621;48.690;9.466;2023-12-14T08:59:28;6.10;99.90
18974;DHT22;9621;48.690;9.466;2023-12-14T09:01:55;6.20;99.90
18974;DHT22;9621;48.690;9.466;2023-12-14T09:04:22;6.20;99.90
18974;DHT22;9621;48.690;9.466;2023-12-14T09:06:48;6.20;99.90
18974;DHT22;9621;48.690;9.466;2023-12-14T09:09:15;6.30;99.90
18974;DHT22;9621;48.690;9.466;2023-12-14T09:11:44;6.40;99.90
18974;DHT22;9621;48.690;9.466;2023-12-14T09:14:11;6.40;99.90
18974;DHT22;9621;48.690;9.466;2023-12-14T09:16:39;6.40;99.90
18974;DHT22;9621;48.690;9.466;2023-12-14T09:19:06;6.40;99.90
18974;DHT22;9621;48.690;9.466;2023-12-14T09:21:33;6.40;99.90
18974;DHT22;9621;48.690;9.466;2023-12-14T09:24:00;6.40;99.90
18974;DHT22;9621;48.690;9.466;2023-12-14T09:26:27;6.40;99.90
18974;DHT22;9621;48.690;9.466;2023-12-14T09:28:54;6.50;99.90
18974;DHT22;9621;48.690;9.466;2023-12-14T09:31:21;6.60;99.90
18974;DHT22;9621;48.690;9.466;2023-12-14T09:33:49;6.50;99.90
18974;DHT22;9621;48.690;9.466;2023-12-14T09:36:16;6.50;99.90
18974;DHT22;9621;48.690;9.466;2023-12-14T09:38:43;6.60;99.90
18974;DHT22;9621;48.690;9.466;2023-12-14T09:41:11;6.60;99.90
18974;DHT22;9621;48.690;9.466;2023-12-14T09:43:38;6.60;99.90
18974;DHT22;9621;48.690;9.466;2023-12-14T09:46:05;6.50;99.90
18974;DHT22;9621;48.690;9.466;2023-12-14T09:48:33;6.60;99.90
18974;DHT22;9621;48.690;9.466;2023-12-14T09:51:02;6.60;99.90
18974;DHT22;9621;48.690;9.466;2023-12-14T09:53:30;6.60;99.90
18974;DHT22;9621;48.690;9.466;2023-12-14T09:55:57;6.70;99.90
18974;DHT22;9621;48.690;9.466;2023-12-14T09:58:24;6.70;99.90
18974;DHT22;9621;48.690;9.466;2023-12-14T10:00:50;6.80;99.90
18974;DHT22;9621;48.690;9.466;2023-12-14T10:03:20;6.80;99.90
18974;DHT22;9621;48.690;9.466;2023-12-14T10:05:47;6.80;99.90
18974;DHT22;9621;48.690;9.466;2023-12-14T10:08:16;6.90;99.90
18974;DHT22;9621;48.690;9.466;2023-12-14T10:10:43;7.00;99.90
18974;DHT22;9621;48.690;9.466;2023-12-14T10:13:10;7.10;99.90
18974;DHT22;9621;48.690;9.466;2023-12-14T10:15:41;7.10;99.90
18974;DHT22;9621;48.690;9.466;2023-12-14T10:18:08;7.10;99.90
18974;DHT22;9621;48.690;9.466;2023-12-14T10:20:35;7.20;99.90
18974;DHT22;9621;48.690;9.466;2023-12-14T10:23:04;7.30;99.90
18974;DHT22;9621;48.690;9.466;2023-12-14T10:25:33;7.30;99.90
18974;DHT22;9621;48.690;9.466;2023-12-14T10:28:00;7.40;99.90
18974;DHT22;9621;48.690;9.466;2023-12-14T10:30:28;7.30;99.90
18974;DHT22;9621;48.690;9.466;2023-12-14T10:32:56;7.40;99.90
18974;DHT22;9621;48.690;9.466;2023-12-14T10:35:23;7.50;99.90
18974;DHT22;9621;48.690;9.466;2023-12-14T10:37:51;7.60;99.90
18974;DHT22;9621;48.690;9.466;2023-12-14T10:40:19;7.60;99.90
18974;DHT22;9621;48.690;9.466;2023-12-14T10:42:49;7.70;99.90
18974;DHT22;9621;48.690;9.466;2023-12-14T10:45:18;7.80;99.90
18974;DHT22;9621;48.690;9.466;2023-12-14T10:47:46;7.80;99.90
18974;DHT22;9621;48.690;9.466;2023-12-14T10:50:14;7.80;99.90
18974;DHT22;9621;48.690;9.466;2023-12-14T10:52:42;7.80;99.90
18974;DHT22;9621;48.690;9.466;2023-12-14T10:55:15;7.70;99.90
18974;DHT22;9621;48.690;9.466;2023-12-14T10:57:45;7.80;99.90
18974;DHT22;9621;48.690;9.466;2023-12-14T11:00:16;7.80;99.90
18974;DHT22;9621;48.690;9.466;2023-12-14T11:02:45;7.80;99.90
18974;DHT22;9621;48.690;9.466;2023-12-14T11:05:14;7.90;99.90
18974;DHT22;9621;48.690;9.466;2023-12-14T11:07:46;7.90;99.90
18974;DHT22;9621;48.690;9.466;2023-12-14T11:10:14;8.00;99.90
18974;DHT22;9621;48.690;9.466;2023-12-14T11:12:51;8.00;99.90
18974;DHT22;9621;48.690;9.466;2023-12-14T11:15:20;8.00;99.90
18974;DHT22;9621;48.690;9.466;2023-12-14T11:18:27;8.10;99.90
18974;DHT22;9621;48.690;9.466;2023-12-14T11:20:55;8.20;99.90
18974;DHT22;9621;48.690;9.466;2023-12-14T11:23:32;8.30;99.90
18974;DHT22;9621;48.690;9.466;2023-12-14T11:26:02;8.40;99.90
18974;DHT22;9621;48.690;9.466;2023-12-14T11:28:31;8.50;99.90
18974;DHT22;9621;48.690;9.466;2023-12-14T11:31:00;8.60;99.90
18974;DHT22;9621;48.690;9.466;2023-12-14T11:33:28;8.60;99.90
18974;DHT22;9621;48.690;9.466;2023-12-14T11:35:55;8.70;99.90
18974;DHT22;9621;48.690;9.466;2023-12-14T11:38:23;8.90;99.90
18974;DHT22;9621;48.690;9.466;2023-12-14T11:40:51;9.00;99.90
18974;DHT22;9621;48.690;9.466;2023-12-14T11:43:18;9.10;99.90
18974;DHT22;9621;48.690;9.466;2023-12-14T11:45:46;9.20;99.90
18974;DHT22;9621;48.690;9.466;2023-12-14T11:48:15;9.20;99.90
18974;DHT22;9621;48.690;9.466;2023-12-14T11:50:42;9.20;99.90
18974;DHT22;9621;48.690;9.466;2023-12-14T11:53:10;9.20;99.90
18974;DHT22;9621;48.690;9.466;2023-12-14T11:55:38;9.00;99.90
18974;DHT22;9621;48.690;9.466;2023-12-14T11:58:06;8.90;99.90
18974;DHT22;9621;48.690;9.466;2023-12-14T12:00:34;8.90;99.90
18974;DHT22;9621;48.690;9.466;2023-12-14T12:03:10;8.70;99.90
18974;DHT22;9621;48.690;9.466;2023-12-14T12:05:40;8.70;99.90
18974;DHT22;9621;48.690;9.466;2023-12-14T12:08:08;8.60;99.90
18974;DHT22;9621;48.690;9.466;2023-12-14T12:10:36;8.70;99.90
18974;DHT22;9621;48.690;9.466;2023-12-14T12:13:04;8.60;99.90
18974;DHT22;9621;48.690;9.466;2023-12-14T12:15:32;8.60;99.90
18974;DHT22;9621;48.690;9.466;2023-12-14T12:18:03;8.60;99.90
18974;DHT22;9621;48.690;9.466;2023-12-14T12:20:30;8.60;99.90
18974;DHT22;9621;48.690;9.466;2023-12-14T12:22:59;8.50;99.90
18974;DHT22;9621;48.690;9.466;2023-12-14T12:25:26;8.40;99.90
18974;DHT22;9621;48.690;9.466;2023-12-14T12:27:53;8.40;99.90
18974;DHT22;9621;48.690;9.466;2023-12-14T12:30:20;8.30;99.90
18974;DHT22;9621;48.690;9.466;2023-12-14T12:32:48;8.20;99.90
18974;DHT22;9621;48.690;9.466;2023-12-14T12:35:15;8.20;99.90
18974;DHT22;9621;48.690;9.466;2023-12-14T12:37:42;8.10;99.90
18974;DHT22;9621;48.690;9.466;2023-12-14T12:40:11;8.00;99.90
18974;DHT22;9621;48.690;9.466;2023-12-14T12:42:38;8.10;99.90
18974;DHT22;9621;48.690;9.466;2023-12-14T12:45:06;8.00;99.90
18974;DHT22;9621;48.690;9.466;2023-12-14T12:47:33;7.90;99.90
18974;DHT22;9621;48.690;9.466;2023-12-14T12:50:00;7.90;99.90
18974;DHT22;9621;48.690;9.466;2023-12-14T12:52:27;7.90;99.90
18974;DHT22;9621;48.690;9.466;2023-12-14T12:54:53;7.80;99.90
18974;DHT22;9621;48.690;9.466;2023-12-14T12:57:22;7.80;99.90
18974;DHT22;9621;48.690;9.466;2023-12-14T12:59:48;7.80;99.90
18974;DHT22;9621;48.690;9.466;2023-12-14T13:02:15;7.80;99.90
18974;DHT22;9621;48.690;9.466;2023-12-14T13:04:42;7.70;99.90
18974;DHT22;9621;48.690;9.466;2023-12-14T13:07:09;7.80;99.90
18974;DHT22;9621;48.690;9.466;2023-12-14T13:09:37;7.80;99.90
18974;DHT22;9621;48.690;9.466;2023-12-14T13:12:04;7.70;99.90
18974;DHT22;9621;48.690;9.466;2023-12-14T13:14:33;7.70;99.90
18974;DHT22;9621;48.690;9.466;2023-12-14T13:17:00;7.70;99.90
18974;DHT22;9621;48.690;9.466;2023-12-14T13:19:26;7.70;99.90
18974;DHT22;9621;48.690;9.466;2023-12-14T13:21:54;7.70;99.90
18974;DHT22;9621;48.690;9.466;2023-12-14T13:24:23;7.70;99.90
18974;DHT22;9621;48.690;9.466;2023-12-14T13:26:50;7.70;99.90
18974;DHT22;9621;48.690;9.466;2023-12-14T13:29:17;7.60;99.90
18974;DHT22;9621;48.690;9.466;2023-12-14T13:31:45;7.60;99.90
18974;DHT22;9621;48.690;9.466;2023-12-14T13:34:12;7.50;99.90
18974;DHT22;9621;48.690;9.466;2023-12-14T13:36:39;7.50;99.90
18974;DHT22;9621;48.690;9.466;2023-12-14T13:39:06;7.40;99.90
18974;DHT22;9621;48.690;9.466;2023-12-14T13:41:33;7.30;99.90
18974;DHT22;9621;48.690;9.466;2023-12-14T13:44:00;7.30;99.90
18974;DHT22;9621;48.690;9.466;2023-12-14T13:46:27;7.30;99.90
18974;DHT22;9621;48.690;9.466;2023-12-14T13:48:56;7.20;99.90
18974;DHT22;9621;48.690;9.466;2023-12-14T13:51:23;7.20;99.90
18974;DHT22;9621;48.690;9.466;2023-12-14T13:53:49;7.10;99.90
18974;DHT22;9621;48.690;9.466;2023-12-14T13:56:16;7.10;99.90
18974;DHT22;9621;48.690;9.466;2023-12-14T13:58:43;7.10;99.90
18974;DHT22;9621;48.690;9.466;2023-12-14T14:01:10;7.10;99.90
18974;DHT22;9621;48.690;9.466;2023-12-14T14:03:37;7.20;99.90
18974;DHT22;9621;48.690;9.466;2023-12-14T14:06:06;7.00;99.90
18974;DHT22;9621;48.690;9.466;2023-12-14T14:08:34;6.90;99.90
18974;DHT22;9621;48.690;9.466;2023-12-14T14:11:01;6.90;99.90
18974;DHT22;9621;48.690;9.466;2023-12-14T14:13:30;6.80;99.90
18974;DHT22;9621;48.690;9.466;2023-12-14T14:15:57;6.70;99.90
18974;DHT22;9621;48.690;9.466;2023-12-14T14:18:24;6.80;99.90
18974;DHT22;9621;48.690;9.466;2023-12-14T14:20:51;6.60;99.90
18974;DHT22;9621;48.690;9.466;2023-12-14T14:23:19;6.60;99.90
18974;DHT22;9621;48.690;9.466;2023-12-14T14:25:46;6.50;99.90
18974;DHT22;9621;48.690;9.466;2023-12-14T14:28:13;6.50;99.90
18974;DHT22;9621;48.690;9.466;2023-12-14T14:30:40;6.50;99.90
18974;DHT22;9621;48.690;9.466;2023-12-14T14:33:07;6.50;99.90
18974;DHT22;9621;48.690;9.466;2023-12-14T14:35:34;6.50;99.90
18974;DHT22;9621;48.690;9.466;2023-12-14T14:38:02;6.50;99.90
18974;DHT22;9621;48.690;9.466;2023-12-14T14:40:31;6.40;99.90
18974;DHT22;9621;48.690;9.466;2023-12-14T14:42:58;6.50;99.90
18974;DHT22;9621;48.690;9.466;2023-12-14T14:45:25;6.40;99.90
18974;DHT22;9621;48.690;9.466;2023-12-14T14:47:52;6.40;99.90
18974;DHT22;9621;48.690;9.466;2023-12-14T14:50:19;6.50;99.90
18974;DHT22;9621;48.690;9.466;2023-12-14T14:52:46;6.40;99.90
18974;DHT22;9621;48.690;9.466;2023-12-14T14:55:13;6.50;99.90
18974;DHT22;9621;48.690;9.466;2023-12-14T14:57:42;6.40;99.90
18974;DHT22;9621;48.690;9.466;2023-12-14T15:00:09;6.40;99.90
18974;DHT22;9621;48.690;9.466;2023-12-14T15:02:37;6.40;99.90
18974;DHT22;9621;48.690;9.466;2023-12-14T15:05:05;6.50;99.90
18974;DHT22;9621;48.690;9.466;2023-12-14T15:07:32;6.30;99.90
18974;DHT22;9621;48.690;9.466;2023-12-14T15:09:59;6.30;99.90
18974;DHT22;9621;48.690;9.466;2023-12-14T15:12:25;6.30;99.90
18974;DHT22;9621;48.690;9.466;2023-12-14T15:14:54;6.30;99.90
18974;DHT22;9621;48.690;9.466;2023-12-14T15:17:21;6.30;99.90
18974;DHT22;9621;48.690;9.466;2023-12-14T15:19:48;6.30;99.90
18974;DHT22;9621;48.690;9.466;2023-12-14T15:22:15;6.30;99.90
18974;DHT22;9621;48.690;9.466;2023-12-14T15:24:42;6.40;99.90
18974;DHT22;9621;48.690;9.466;2023-12-14T15:27:09;6.20;99.90
18974;DHT22;9621;48.690;9.466;2023-12-14T15:29:36;6.20;99.90
18974;DHT22;9621;48.690;9.466;2023-12-14T15:32:05;6.20;99.90
18974;DHT22;9621;48.690;9.466;2023-12-14T15:34:32;6.20;99.90
18974;DHT22;9621;48.690;9.466;2023-12-14T15:36:58;6.10;99.90
18974;DHT22;9621;48.690;9.466;2023-12-14T15:39:25;6.10;99.90
18974;DHT22;9621;48.690;9.466;2023-12-14T15:41:52;6.00;99.90
18974;DHT22;9621;48.690;9.466;2023-12-14T15:44:19;6.10;99.90
18974;DHT22;9621;48.690;9.466;2023-12-14T15:46:47;6.00;99.90
18974;DHT22;9621;48.690;9.466;2023-12-14T15:49:15;6.00;99.90
18974;DHT22;9621;48.690;9.466;2023-12-14T15:51:42;5.90;99.90
18974;DHT22;9621;48.690;9.466;2023-12-14T15:54:09;6.00;99.90
18974;DHT22;9621;48.690;9.466;2023-12-14T15:56:36;5.90;99.90
18974;DHT22;9621;48.690;9.466;2023-12-14T15:59:03;5.90;99.90
18974;DHT22;9621;48.690;9.466;2023-12-14T16:01:36;5.90;99.90
18974;DHT22;9621;48.690;9.466;2023-12-14T16:04:05;5.90;99.90